createdAt,value
2023-03-24T00:01:38.288Z,63.60
2023-03-24T00:03:39.815Z,18.88
2023-03-24T00:05:41.479Z,72.53
2023-03-24T00:07:43.585Z,36.55
2023-03-24T00:09:45.648Z,38.60
2023-03-24T00:11:47.145Z,70.38
2023-03-24T00:13:50.578Z,21.98
2023-03-24T00:15:52.410Z,37.83
2023-03-24T00:17:55.833Z,16.75
2023-03-24T00:19:58.039Z,13.68
2023-03-24T00:22:00.597Z,17.88
2023-03-24T00:24:03.120Z,32.75
2023-03-24T00:26:06.865Z,23.90
2023-03-24T00:28:11.241Z,27.75
2023-03-24T00:30:13.013Z,10.40
2023-03-24T00:32:14.482Z,24.15
2023-03-24T00:34:16.316Z,18.90
2023-03-24T00:36:20.476Z,27.63
2023-03-24T00:38:22.083Z,16.40
2023-03-24T00:40:23.620Z,22.17
2023-03-24T00:42:25.266Z,34.00
2023-03-24T00:44:26.709Z,11.05
2023-03-24T00:46:28.396Z,19.17
2023-03-24T00:48:30.197Z,9.20
2023-03-24T00:50:33.589Z,66.80
2023-03-24T00:52:35.133Z,76.45
2023-03-24T00:54:37.848Z,76.57
2023-03-24T00:56:40.648Z,30.75
2023-03-24T00:58:42.519Z,19.00
2023-03-24T01:00:44.907Z,20.45
2023-03-24T01:02:47.691Z,13.18
2023-03-24T01:04:54.311Z,12.60
2023-03-24T01:06:58.339Z,23.40
2023-03-24T01:08:59.826Z,11.85
2023-03-24T01:11:01.454Z,7.28
2023-03-24T01:13:04.002Z,7.30
2023-03-24T01:15:08.940Z,12.85
2023-03-24T01:17:10.340Z,8.63
2023-03-24T01:19:11.890Z,8.18
2023-03-24T01:21:13.304Z,11.55
2023-03-24T01:23:16.048Z,7.43
2023-03-24T01:25:18.778Z,11.85
2023-03-24T01:27:20.461Z,17.45
2023-03-24T01:29:21.849Z,20.60
2023-03-24T01:31:23.385Z,21.15
2023-03-24T01:33:24.811Z,12.63
2023-03-24T01:35:28.952Z,14.63
2023-03-24T01:37:30.972Z,8.13
2023-03-24T01:39:32.689Z,9.85
2023-03-24T01:41:35.915Z,6.78
2023-03-24T01:43:37.411Z,11.10
2023-03-24T01:45:39.090Z,9.57
2023-03-24T01:47:40.574Z,7.57
2023-03-24T01:49:45.322Z,14.98
2023-03-24T01:51:48.076Z,11.50
2023-03-24T01:53:54.653Z,8.27
2023-03-24T01:55:56.473Z,11.35
2023-03-24T01:57:59.936Z,12.50
2023-03-24T02:00:05.085Z,9.30
2023-03-24T02:02:06.748Z,10.15
2023-03-24T02:04:08.469Z,9.20
2023-03-24T02:06:10.116Z,11.73
2023-03-24T02:08:30.202Z,11.68
2023-03-24T02:10:33.288Z,9.82
2023-03-24T02:12:34.998Z,9.45
2023-03-24T02:14:36.684Z,9.80
2023-03-24T02:16:47.940Z,10.90
2023-03-24T02:18:55.537Z,20.40
2023-03-24T02:20:59.708Z,9.82
2023-03-24T02:23:17.264Z,10.75
2023-03-24T02:25:30.662Z,13.52
2023-03-24T02:27:38.693Z,10.35
2023-03-24T02:29:58.546Z,11.65
2023-03-24T02:34:01.413Z,13.18
2023-03-24T02:36:09.578Z,11.80
2023-03-24T02:38:29.306Z,18.60
2023-03-24T02:40:34.696Z,11.48
2023-03-24T02:42:41.974Z,14.48
2023-03-24T02:44:46.394Z,12.25
2023-03-24T02:46:50.930Z,15.68
2023-03-24T02:49:04.831Z,13.52
2023-03-24T02:51:13.472Z,13.32
2023-03-24T02:53:27.212Z,14.32
2023-03-24T02:55:43.110Z,14.25
2023-03-24T02:57:50.449Z,15.00
2023-03-24T02:59:57.772Z,12.65
2023-03-24T03:02:01.939Z,12.60
2023-03-24T03:04:08.809Z,12.93
2023-03-24T03:06:42.780Z,12.52
2023-03-24T03:08:47.553Z,11.98
2023-03-24T03:10:50.486Z,15.02
2023-03-24T03:12:54.057Z,15.32
2023-03-24T03:14:59.193Z,17.02
2023-03-24T03:17:16.352Z,23.20
2023-03-24T03:19:19.979Z,21.60
2023-03-24T03:21:23.912Z,18.10
2023-03-24T03:23:29.247Z,15.85
2023-03-24T03:25:33.549Z,16.83
2023-03-24T03:27:39.646Z,13.05
2023-03-24T03:29:43.215Z,16.13
2023-03-24T03:31:49.634Z,12.70
2023-03-24T03:33:57.176Z,14.25
2023-03-24T03:36:18.909Z,12.60
2023-03-24T03:38:24.392Z,15.70
2023-03-24T03:40:48.950Z,15.43
2023-03-24T03:42:51.421Z,19.73
2023-03-24T03:44:53.213Z,18.15
2023-03-24T03:46:55.343Z,17.83
2023-03-24T03:48:56.783Z,15.68
2023-03-24T03:51:10.313Z,14.07
2023-03-24T03:53:17.294Z,17.98
2023-03-24T03:55:19.180Z,15.13
2023-03-24T03:57:20.889Z,15.77
2023-03-24T03:59:25.430Z,13.65
2023-03-24T04:01:28.203Z,12.65
2023-03-24T04:03:30.277Z,13.63
2023-03-24T04:05:35.436Z,12.32
2023-03-24T04:07:58.162Z,17.33
2023-03-24T04:09:59.541Z,14.85
2023-03-24T04:12:14.591Z,18.83
2023-03-24T04:14:18.766Z,22.08
2023-03-24T04:16:32.297Z,14.77
2023-03-24T04:18:52.785Z,15.60
2023-03-24T04:20:57.081Z,17.35
2023-03-24T04:23:04.515Z,16.30
2023-03-24T04:25:11.117Z,17.90
2023-03-24T04:27:27.318Z,19.50
2023-03-24T04:29:34.889Z,20.13
2023-03-24T04:31:40.924Z,19.30
2023-03-24T04:33:51.638Z,21.20
2023-03-24T04:35:55.314Z,24.25
2023-03-24T04:37:57.944Z,15.98
2023-03-24T04:40:01.599Z,21.88
2023-03-24T04:42:04.581Z,14.98
2023-03-24T04:44:06.195Z,15.25
2023-03-24T04:46:09.058Z,12.90
2023-03-24T04:48:12.618Z,14.27
2023-03-24T04:50:14.520Z,13.93
2023-03-24T04:52:18.016Z,13.77
2023-03-24T04:54:20.626Z,15.45
2023-03-24T04:56:41.092Z,13.30
2023-03-24T04:58:42.588Z,17.45
2023-03-24T05:00:45.331Z,13.32
2023-03-24T05:02:46.815Z,12.38
2023-03-24T05:04:48.236Z,14.82
2023-03-24T05:06:49.767Z,13.20
2023-03-24T05:08:52.369Z,11.75
2023-03-24T05:10:53.875Z,13.40
2023-03-24T05:12:55.562Z,13.98
2023-03-24T05:14:57.062Z,15.25
2023-03-24T05:16:58.485Z,19.48
2023-03-24T05:18:59.969Z,16.83
2023-03-24T05:21:01.480Z,16.80
2023-03-24T05:23:03.219Z,16.52
2023-03-24T05:25:05.220Z,16.23
2023-03-24T05:27:06.682Z,18.50
2023-03-24T05:29:08.108Z,20.35
2023-03-24T05:31:09.638Z,37.88
2023-03-24T05:33:11.337Z,229.93
2023-03-24T05:35:12.813Z,339.90
2023-03-24T05:37:16.941Z,247.88
2023-03-24T05:39:18.643Z,58.13
2023-03-24T05:41:20.215Z,28.00
2023-03-24T05:43:21.708Z,18.70
2023-03-24T05:45:25.093Z,17.15
2023-03-24T05:47:27.321Z,17.80
2023-03-24T05:49:28.966Z,17.23
2023-03-24T05:51:30.404Z,21.52
2023-03-24T05:53:32.234Z,21.02
2023-03-24T05:55:33.839Z,16.98
2023-03-24T05:57:36.777Z,15.80
2023-03-24T05:59:38.164Z,17.70
2023-03-24T06:01:39.645Z,23.73
2023-03-24T06:03:41.172Z,16.23
2023-03-24T06:05:46.007Z,15.80
2023-03-24T06:07:47.904Z,20.63
2023-03-24T06:09:52.650Z,21.77
2023-03-24T06:11:54.092Z,28.83
2023-03-24T06:13:59.543Z,22.45
2023-03-24T06:16:03.598Z,22.35
2023-03-24T06:18:05.544Z,18.00
2023-03-24T06:20:14.011Z,20.63
2023-03-24T06:22:16.461Z,26.25
2023-03-24T06:24:18.174Z,19.83
2023-03-24T06:26:20.033Z,24.45
2023-03-24T06:28:22.252Z,20.65
2023-03-24T06:30:23.953Z,17.98
2023-03-24T06:32:26.214Z,17.60
2023-03-24T06:34:29.355Z,19.33
2023-03-24T06:36:30.803Z,16.17
2023-03-24T06:38:32.232Z,18.25
2023-03-24T06:40:33.988Z,19.55
2023-03-24T06:42:35.881Z,22.38
2023-03-24T06:44:37.723Z,22.05
2023-03-24T06:46:40.467Z,22.70
2023-03-24T06:48:41.963Z,24.05
2023-03-24T06:50:43.495Z,28.92
2023-03-24T06:52:45.262Z,28.75
2023-03-24T06:54:46.782Z,27.45
2023-03-24T06:56:48.737Z,31.23
2023-03-24T06:58:50.459Z,29.42
2023-03-24T07:00:51.962Z,29.63
2023-03-24T07:02:53.513Z,24.55
2023-03-24T07:04:55.247Z,31.23
2023-03-24T07:07:12.617Z,31.73
2023-03-24T07:09:18.943Z,24.73
2023-03-24T07:11:20.365Z,25.85
2023-03-24T07:13:22.072Z,27.90
2023-03-24T07:15:24.090Z,27.52
2023-03-24T07:17:25.704Z,26.83
2023-03-24T07:19:27.118Z,51.53
2023-03-24T07:21:28.570Z,52.78
2023-03-24T07:23:30.494Z,32.70
2023-03-24T07:25:32.321Z,31.35
2023-03-24T07:27:35.637Z,26.55
2023-03-24T07:29:37.391Z,23.60
2023-03-24T07:31:39.677Z,17.42
2023-03-24T07:33:41.391Z,22.95
2023-03-24T07:35:43.292Z,17.50
2023-03-24T07:37:45.111Z,14.95
2023-03-24T07:39:46.631Z,14.27
2023-03-24T07:41:48.331Z,16.80
2023-03-24T07:43:49.967Z,14.75
2023-03-24T07:45:51.646Z,16.33
2023-03-24T07:47:53.303Z,11.07
2023-03-24T07:49:54.861Z,13.15
2023-03-24T07:51:56.277Z,11.00
2023-03-24T07:53:57.783Z,9.30
2023-03-24T07:55:59.393Z,10.30
2023-03-24T07:58:00.817Z,8.88
2023-03-24T08:00:02.311Z,7.50
2023-03-24T08:02:03.837Z,6.20
2023-03-24T08:04:06.943Z,6.65
2023-03-24T08:06:09.359Z,5.80
2023-03-24T08:08:10.838Z,6.57
2023-03-24T08:10:13.819Z,9.23
2023-03-24T08:12:20.372Z,6.28
2023-03-24T08:14:23.726Z,5.97
2023-03-24T08:16:26.509Z,5.13
2023-03-24T08:18:28.223Z,8.65
2023-03-24T08:20:29.668Z,6.03
2023-03-24T08:22:31.122Z,8.05
2023-03-24T08:24:32.531Z,10.13
2023-03-24T08:26:35.474Z,7.45
2023-03-24T08:28:37.666Z,7.20
2023-03-24T08:30:40.027Z,6.38
2023-03-24T08:32:43.675Z,8.18
2023-03-24T08:34:45.598Z,5.88
2023-03-24T08:36:47.430Z,8.23
2023-03-24T08:38:51.861Z,5.82
2023-03-24T08:40:53.273Z,7.85
2023-03-24T08:42:56.608Z,7.90
2023-03-24T08:44:58.030Z,6.53
2023-03-24T08:47:00.776Z,5.90
2023-03-24T08:49:02.717Z,6.85
2023-03-24T08:51:13.926Z,7.13
2023-03-24T08:53:15.506Z,5.22
2023-03-24T08:55:18.242Z,6.65
2023-03-24T08:57:19.714Z,5.78
2023-03-24T08:59:21.312Z,6.70
2023-03-24T09:01:25.723Z,7.55
2023-03-24T09:03:27.260Z,10.10
2023-03-24T09:05:43.386Z,6.10
2023-03-24T09:07:45.982Z,9.27
2023-03-24T09:09:47.429Z,7.18
2023-03-24T09:11:49.101Z,5.90
2023-03-24T09:13:50.679Z,5.18
2023-03-24T09:15:59.247Z,6.68
2023-03-24T09:18:00.952Z,5.85
2023-03-24T09:20:11.732Z,5.55
2023-03-24T09:22:13.183Z,4.90
2023-03-24T09:24:15.336Z,5.63
2023-03-24T09:26:16.765Z,7.47
2023-03-24T09:28:18.913Z,6.78
2023-03-24T09:30:20.617Z,7.65
2023-03-24T09:32:22.151Z,5.43
2023-03-24T09:34:24.314Z,5.40
2023-03-24T09:36:26.025Z,5.38
2023-03-24T09:38:30.516Z,5.90
2023-03-24T09:40:33.380Z,5.00
2023-03-24T09:42:40.514Z,7.20
2023-03-24T09:44:46.540Z,7.07
2023-03-24T09:46:53.392Z,6.38
2023-03-24T09:48:57.762Z,6.68
2023-03-24T09:51:01.628Z,6.97
2023-03-24T09:53:09.816Z,6.90
2023-03-24T09:55:14.504Z,5.40
2023-03-24T09:57:54.371Z,5.68
2023-03-24T10:01:57.956Z,6.72
2023-03-24T10:04:00.022Z,5.50
2023-03-24T10:06:10.749Z,5.40
2023-03-24T10:08:21.465Z,6.18
2023-03-24T10:10:36.725Z,5.70
2023-03-24T10:12:39.977Z,6.65
2023-03-24T10:14:54.050Z,6.32
2023-03-24T10:17:13.594Z,4.70
2023-03-24T10:19:17.985Z,5.40
2023-03-24T10:21:21.016Z,5.93
2023-03-24T10:23:40.937Z,5.07
2023-03-24T10:25:46.087Z,3.83
2023-03-24T10:28:07.845Z,5.53
2023-03-24T10:30:23.741Z,3.25
2023-03-24T10:32:27.028Z,5.25
2023-03-24T10:34:30.395Z,5.45
2023-03-24T10:36:32.147Z,3.83
2023-03-24T10:38:33.712Z,4.90
2023-03-24T10:40:35.976Z,4.32
2023-03-24T10:42:38.216Z,5.50
2023-03-24T10:44:40.205Z,4.55
2023-03-24T10:46:49.349Z,3.88
2023-03-24T10:48:52.794Z,4.20
2023-03-24T10:50:58.753Z,4.53
2023-03-24T10:53:00.175Z,6.15
2023-03-24T10:55:06.512Z,8.18
2023-03-24T10:57:19.912Z,5.13
2023-03-24T10:59:25.641Z,4.10
2023-03-24T11:01:30.723Z,5.78
2023-03-24T11:03:35.167Z,5.38
2023-03-24T11:05:37.653Z,6.38
2023-03-24T11:07:40.741Z,6.18
2023-03-24T11:09:45.827Z,5.93
2023-03-24T11:11:47.617Z,6.72
2023-03-24T11:13:59.299Z,4.85
2023-03-24T11:16:15.138Z,8.27
2023-03-24T11:18:16.762Z,4.40
2023-03-24T11:20:41.491Z,6.50
2023-03-24T11:22:45.007Z,7.30
2023-03-24T11:24:49.286Z,4.85
2023-03-24T11:26:56.485Z,5.95
2023-03-24T11:28:59.916Z,8.60
2023-03-24T11:31:08.695Z,7.05
2023-03-24T11:33:13.301Z,14.90
2023-03-24T11:35:20.611Z,7.22
2023-03-24T11:39:27.106Z,5.63
2023-03-24T11:41:28.527Z,6.28
2023-03-24T11:43:30.705Z,11.25
2023-03-24T11:45:49.392Z,15.93
2023-03-24T11:47:52.810Z,11.27
2023-03-24T11:50:09.644Z,7.93
2023-03-24T11:52:25.064Z,8.77
2023-03-24T11:54:36.617Z,7.50
2023-03-24T11:56:41.724Z,5.78
2023-03-24T11:58:46.150Z,9.02
2023-03-24T12:00:52.095Z,7.25
2023-03-24T12:02:56.807Z,5.90
2023-03-24T12:05:21.747Z,8.77
2023-03-24T12:07:39.918Z,8.32
2023-03-24T12:09:54.255Z,7.85
2023-03-24T12:11:56.069Z,9.40
2023-03-24T12:13:58.649Z,9.20
2023-03-24T12:16:12.530Z,7.20
2023-03-24T12:18:23.408Z,7.25
2023-03-24T12:21:04.620Z,13.93
2023-03-24T12:23:15.185Z,8.77
2023-03-24T12:25:29.717Z,9.85
2023-03-24T12:27:42.362Z,7.13
2023-03-24T12:29:49.899Z,8.20
2023-03-24T12:31:57.597Z,6.97
2023-03-24T12:34:04.085Z,6.72
2023-03-24T12:36:08.345Z,11.50
2023-03-24T12:38:24.938Z,8.18
2023-03-24T12:40:37.352Z,10.38
2023-03-24T12:42:40.435Z,9.63
2023-03-24T12:44:41.877Z,9.50
2023-03-24T12:46:48.306Z,8.73
2023-03-24T12:49:10.909Z,7.22
2023-03-24T12:51:15.595Z,6.85
2023-03-24T12:53:23.185Z,9.77
2023-03-24T12:55:36.251Z,7.50
2023-03-24T12:57:41.076Z,8.48
2023-03-24T12:59:48.412Z,14.73
2023-03-24T13:01:55.364Z,8.73
2023-03-24T13:04:00.537Z,10.30
2023-03-24T13:06:16.951Z,11.65
2023-03-24T13:08:29.586Z,9.93
2023-03-24T13:10:34.332Z,9.23
2023-03-24T13:12:45.730Z,8.98
2023-03-24T13:14:47.277Z,10.77
2023-03-24T13:16:49.796Z,7.55
2023-03-24T13:18:52.851Z,9.80
2023-03-24T13:20:55.890Z,10.85
2023-03-24T13:22:58.791Z,10.65
2023-03-24T13:25:01.157Z,9.38
2023-03-24T13:27:09.360Z,10.13
2023-03-24T13:29:15.795Z,7.75
2023-03-24T13:31:18.276Z,9.05
2023-03-24T13:33:28.319Z,7.43
2023-03-24T13:35:45.411Z,10.68
2023-03-24T13:37:57.458Z,8.45
2023-03-24T13:40:00.669Z,12.15
2023-03-24T13:42:02.939Z,10.35
2023-03-24T13:44:24.127Z,9.70
2023-03-24T13:46:25.757Z,10.25
2023-03-24T13:48:36.572Z,8.23
2023-03-24T13:50:39.404Z,9.43
2023-03-24T13:52:45.901Z,10.20
2023-03-24T13:54:48.769Z,12.40
2023-03-24T13:56:59.567Z,13.57
2023-03-24T13:59:20.057Z,9.68
2023-03-24T14:01:37.012Z,8.45
2023-03-24T14:03:43.411Z,12.02
2023-03-24T14:05:57.306Z,8.50
2023-03-24T14:07:58.701Z,10.05
2023-03-24T14:10:20.969Z,8.43
2023-03-24T14:12:22.584Z,7.18
2023-03-24T14:14:27.888Z,7.68
2023-03-24T14:16:47.800Z,9.32
2023-03-24T14:20:56.870Z,9.88
2023-03-24T14:22:58.567Z,9.80
2023-03-24T14:25:01.566Z,10.68
2023-03-24T14:27:22.548Z,13.77
2023-03-24T14:29:38.001Z,12.27
2023-03-24T14:31:39.479Z,16.05
2023-03-24T14:34:05.905Z,11.40
2023-03-24T14:36:12.144Z,10.73
2023-03-24T14:38:17.609Z,14.60
2023-03-24T14:40:45.415Z,14.60
2023-03-24T14:42:46.796Z,12.88
2023-03-24T14:44:52.577Z,12.05
2023-03-24T14:46:57.958Z,7.95
2023-03-24T14:49:05.433Z,9.60
2023-03-24T14:51:25.276Z,9.85
2023-03-24T14:55:28.876Z,12.40
2023-03-24T14:57:30.252Z,13.75
2023-03-24T14:59:38.084Z,16.15
2023-03-24T15:01:48.123Z,13.55
2023-03-24T15:04:02.007Z,14.50
2023-03-24T15:06:04.507Z,13.63
2023-03-24T15:08:20.968Z,19.92
2023-03-24T15:10:22.465Z,21.33
2023-03-24T15:12:24.441Z,9.10
2023-03-24T15:14:26.276Z,17.65
2023-03-24T15:16:28.696Z,19.13
2023-03-24T15:18:30.644Z,21.17
2023-03-24T15:20:35.169Z,14.00
2023-03-24T15:22:43.004Z,19.23
2023-03-24T15:24:46.687Z,26.42
2023-03-24T15:26:49.067Z,30.17
2023-03-24T15:28:54.812Z,30.45
2023-03-24T15:31:07.877Z,35.10
2023-03-24T15:33:11.486Z,38.65
2023-03-24T15:35:20.643Z,53.90
2023-03-24T15:37:23.989Z,32.72
2023-03-24T15:39:27.118Z,26.88
2023-03-24T15:41:28.624Z,38.45
2023-03-24T15:43:31.156Z,28.00
2023-03-24T15:45:34.261Z,48.03
2023-03-24T15:47:37.757Z,23.77
2023-03-24T15:49:46.247Z,29.50
2023-03-24T15:51:52.090Z,58.22
2023-03-24T15:53:58.104Z,96.72
2023-03-24T15:56:06.502Z,29.67
2023-03-24T15:58:22.849Z,69.07
2023-03-24T16:00:25.423Z,59.03
2023-03-24T16:02:29.868Z,71.55
2023-03-24T16:04:31.333Z,74.20
2023-03-24T16:06:35.447Z,110.65
2023-03-24T16:08:41.093Z,51.95
2023-03-24T16:10:43.627Z,57.53
2023-03-24T16:12:45.024Z,34.83
2023-03-24T16:14:46.509Z,28.15
2023-03-24T16:16:47.997Z,33.22
2023-03-24T16:18:50.009Z,17.98
2023-03-24T16:20:54.219Z,36.78
2023-03-24T16:22:57.091Z,39.80
2023-03-24T16:24:58.596Z,31.40
2023-03-24T16:27:00.123Z,28.35
2023-03-24T16:29:16.649Z,39.58
2023-03-24T16:31:25.161Z,34.65
2023-03-24T16:33:27.359Z,17.77
2023-03-24T16:35:28.787Z,31.65
2023-03-24T16:37:31.205Z,40.53
2023-03-24T16:39:32.672Z,80.55
2023-03-24T16:41:34.124Z,47.33
2023-03-24T16:43:35.628Z,48.75
2023-03-24T16:45:37.064Z,41.63
2023-03-24T16:47:38.571Z,36.10
2023-03-24T16:49:40.322Z,58.97
2023-03-24T16:51:42.113Z,79.75
2023-03-24T16:53:44.200Z,44.13
2023-03-24T16:55:46.876Z,55.83
2023-03-24T16:57:48.441Z,41.25
2023-03-24T16:59:49.809Z,64.82
2023-03-24T17:01:52.164Z,72.32
2023-03-24T17:03:54.886Z,68.10
2023-03-24T17:05:57.686Z,40.88
2023-03-24T17:07:59.096Z,66.30
2023-03-24T17:10:00.605Z,78.40
2023-03-24T17:12:02.357Z,57.40
2023-03-24T17:14:05.687Z,35.70
2023-03-24T17:16:09.537Z,35.53
2023-03-24T17:18:11.162Z,25.52
2023-03-24T17:20:13.794Z,68.32
2023-03-24T17:22:17.436Z,33.35
2023-03-24T17:24:19.190Z,49.00
2023-03-24T17:26:23.445Z,55.70
2023-03-24T17:28:25.054Z,45.58
2023-03-24T17:30:27.613Z,57.00
2023-03-24T17:32:29.988Z,26.55
2023-03-24T17:34:31.932Z,20.00
2023-03-24T17:36:33.356Z,21.67
2023-03-24T17:38:34.814Z,27.85
2023-03-24T17:40:36.222Z,38.17
2023-03-24T17:42:38.761Z,27.00
2023-03-24T17:44:40.297Z,66.55
2023-03-24T17:46:41.788Z,47.47
2023-03-24T17:48:45.797Z,76.65
2023-03-24T17:50:48.341Z,57.70
2023-03-24T17:52:50.104Z,37.95
2023-03-24T17:54:51.886Z,36.80
2023-03-24T17:56:53.404Z,23.90
2023-03-24T17:58:56.400Z,24.77
2023-03-24T18:00:58.618Z,28.13
2023-03-24T18:03:09.690Z,36.95
2023-03-24T18:05:13.988Z,26.33
2023-03-24T18:07:15.492Z,30.30
2023-03-24T18:09:18.455Z,29.80
2023-03-24T18:11:19.956Z,24.85
2023-03-24T18:13:21.396Z,24.33
2023-03-24T18:15:22.975Z,22.13
2023-03-24T18:17:24.425Z,28.42
2023-03-24T18:19:25.865Z,28.58
2023-03-24T18:21:27.825Z,36.15
2023-03-24T18:23:30.688Z,34.90
2023-03-24T18:25:33.560Z,39.58
2023-03-24T18:27:35.938Z,65.13
2023-03-24T18:29:37.608Z,48.67
2023-03-24T18:31:39.080Z,45.05
2023-03-24T18:33:42.963Z,36.17
2023-03-24T18:35:53.857Z,38.33
2023-03-24T18:37:55.451Z,48.10
2023-03-24T18:39:56.848Z,47.92
2023-03-24T18:41:58.250Z,47.35
2023-03-24T18:43:59.740Z,64.72
2023-03-24T18:46:01.278Z,56.22
2023-03-24T18:48:02.863Z,51.33
2023-03-24T18:50:04.592Z,42.47
2023-03-24T18:52:08.384Z,39.83
2023-03-24T18:54:11.683Z,30.55
2023-03-24T18:56:13.340Z,40.33
2023-03-24T18:58:15.868Z,28.17
2023-03-24T19:00:20.178Z,40.63
2023-03-24T19:02:21.714Z,27.20
2023-03-24T19:04:23.201Z,34.35
2023-03-24T19:06:26.369Z,34.67
2023-03-24T19:08:28.082Z,27.98
2023-03-24T19:10:29.558Z,45.05
2023-03-24T19:12:31.185Z,32.53
2023-03-24T19:14:34.531Z,41.35
2023-03-24T19:16:36.005Z,35.65
2023-03-24T19:18:37.824Z,33.13
2023-03-24T19:20:40.019Z,30.88
2023-03-24T19:22:42.221Z,26.95
2023-03-24T19:24:43.694Z,27.52
2023-03-24T19:26:45.116Z,36.25
2023-03-24T19:28:47.555Z,33.55
2023-03-24T19:30:49.010Z,25.98
2023-03-24T19:32:50.475Z,26.45
2023-03-24T19:34:51.930Z,23.90
2023-03-24T19:36:56.754Z,35.58
2023-03-24T19:38:58.240Z,30.13
2023-03-24T19:41:03.989Z,26.25
2023-03-24T19:43:05.430Z,40.50
2023-03-24T19:45:07.927Z,25.55
2023-03-24T19:47:09.408Z,25.85
2023-03-24T19:49:11.007Z,28.83
2023-03-24T19:51:12.415Z,22.50
2023-03-24T19:53:13.837Z,20.25
2023-03-24T19:55:15.481Z,25.40
2023-03-24T19:57:17.103Z,26.88
2023-03-24T19:59:18.589Z,25.25
2023-03-24T20:01:21.522Z,48.10
2023-03-24T20:03:23.344Z,27.85
2023-03-24T20:05:24.917Z,26.08
2023-03-24T20:07:26.687Z,22.02
2023-03-24T20:09:28.126Z,26.13
2023-03-24T20:11:29.572Z,28.48
2023-03-24T20:13:31.038Z,26.55
2023-03-24T20:15:32.540Z,24.80
2023-03-24T20:17:37.668Z,35.15
2023-03-24T20:19:39.248Z,27.92
2023-03-24T20:21:41.107Z,39.03
2023-03-24T20:23:42.584Z,25.92
2023-03-24T20:25:44.082Z,23.88
2023-03-24T20:27:46.958Z,26.45
2023-03-24T20:29:48.470Z,33.55
2023-03-24T20:31:50.172Z,26.98
2023-03-24T20:33:51.918Z,25.45
2023-03-24T20:35:54.196Z,25.08
2023-03-24T20:37:55.818Z,21.75
2023-03-24T20:39:59.360Z,20.33
2023-03-24T20:42:01.067Z,23.40
2023-03-24T20:44:02.525Z,20.42
2023-03-24T20:46:05.046Z,29.90
2023-03-24T20:48:06.576Z,23.35
2023-03-24T20:50:08.387Z,24.23
2023-03-24T20:52:09.852Z,27.95
2023-03-24T20:54:11.646Z,28.17
2023-03-24T20:56:15.129Z,23.65
2023-03-24T20:58:16.932Z,30.20
2023-03-24T21:00:18.520Z,23.45
2023-03-24T21:02:20.350Z,19.75
2023-03-24T21:04:21.812Z,18.77
2023-03-24T21:06:23.590Z,24.45
2023-03-24T21:08:24.978Z,22.05
2023-03-24T21:10:26.387Z,29.52
2023-03-24T21:12:27.783Z,26.38
2023-03-24T21:14:30.110Z,24.05
2023-03-24T21:16:33.929Z,59.65
2023-03-24T21:18:36.399Z,34.63
2023-03-24T21:20:38.746Z,30.73
2023-03-24T21:22:56.145Z,52.85
2023-03-24T21:24:59.495Z,51.00
2023-03-24T21:27:01.041Z,29.23
2023-03-24T21:29:02.421Z,50.58
2023-03-24T21:31:11.602Z,66.38
2023-03-24T21:33:14.562Z,23.58
2023-03-24T21:35:16.436Z,18.08
2023-03-24T21:37:19.741Z,49.17
2023-03-24T21:39:21.868Z,35.60
2023-03-24T21:41:23.718Z,70.60
2023-03-24T21:43:27.078Z,31.63
2023-03-24T21:45:32.088Z,32.80
2023-03-24T21:47:34.614Z,25.33
2023-03-24T21:49:36.052Z,37.72
2023-03-24T21:51:37.521Z,29.95
2023-03-24T21:53:38.907Z,21.90
2023-03-24T21:55:40.825Z,24.98
2023-03-24T21:57:43.025Z,16.92
2023-03-24T21:59:44.472Z,17.15
2023-03-24T22:01:45.906Z,19.30
2023-03-24T22:03:47.558Z,17.63
2023-03-24T22:05:49.222Z,17.77
2023-03-24T22:07:50.847Z,17.70
2023-03-24T22:09:52.392Z,18.40
2023-03-24T22:11:57.220Z,14.25
2023-03-24T22:13:58.703Z,14.93
2023-03-24T22:16:01.486Z,15.40
2023-03-24T22:18:02.993Z,17.20
2023-03-24T22:20:14.844Z,15.60
2023-03-24T22:22:16.337Z,16.40
2023-03-24T22:24:18.383Z,16.23
2023-03-24T22:26:19.838Z,86.45
2023-03-24T22:28:21.433Z,24.58
2023-03-24T22:30:23.188Z,20.77
2023-03-24T22:32:24.864Z,17.58
2023-03-24T22:34:26.391Z,22.67
2023-03-24T22:36:27.801Z,18.67
2023-03-24T22:38:30.051Z,20.13
2023-03-24T22:40:31.500Z,17.17
2023-03-24T22:42:32.946Z,20.67
2023-03-24T22:44:34.333Z,14.95
2023-03-24T22:46:35.741Z,16.30
2023-03-24T22:48:40.391Z,16.80
2023-03-24T22:50:42.234Z,16.75
2023-03-24T22:52:43.754Z,15.65
2023-03-24T22:54:45.404Z,15.05
2023-03-24T22:56:47.015Z,14.05
2023-03-24T22:58:48.678Z,17.08
2023-03-24T23:00:50.632Z,14.95
2023-03-24T23:02:52.120Z,23.38
2023-03-24T23:04:55.135Z,17.65
2023-03-24T23:06:57.534Z,23.10
2023-03-24T23:09:00.297Z,28.73
2023-03-24T23:11:01.756Z,23.95
2023-03-24T23:13:04.178Z,21.10
2023-03-24T23:15:07.141Z,24.92
2023-03-24T23:17:09.545Z,28.00
2023-03-24T23:19:12.163Z,28.55
2023-03-24T23:21:14.817Z,28.65
2023-03-24T23:23:16.792Z,35.10
2023-03-24T23:25:20.946Z,50.95
2023-03-24T23:27:22.428Z,47.45
2023-03-24T23:29:23.843Z,34.25
2023-03-24T23:31:27.134Z,29.42
2023-03-24T23:33:28.794Z,40.88
2023-03-24T23:35:30.867Z,33.83
2023-03-24T23:37:32.861Z,40.92
2023-03-24T23:39:37.513Z,38.00
2023-03-24T23:41:38.967Z,36.30
2023-03-24T23:43:40.950Z,43.40
2023-03-24T23:45:44.752Z,47.35
2023-03-24T23:47:47.535Z,28.85
2023-03-24T23:49:51.578Z,62.47
2023-03-24T23:51:53.042Z,32.78
2023-03-24T23:53:54.433Z,31.33
2023-03-24T23:55:57.137Z,32.28
2023-03-24T23:57:58.563Z,28.48
